createdAt,value
2019-04-14T00:00:51.456Z,4.09
2019-04-14T00:03:21.595Z,3.86
2019-04-14T00:05:49.688Z,3.75
2019-04-14T00:08:17.741Z,3.75
2019-04-14T00:10:46.453Z,3.97
2019-04-14T00:13:15.243Z,3.91
2019-04-14T00:18:17.133Z,4.22
2019-04-14T00:20:45.482Z,4.22
2019-04-14T00:23:14.847Z,4.16
2019-04-14T00:25:43.276Z,4.35
2019-04-14T00:28:11.704Z,4.08
2019-04-14T00:30:39.101Z,4.02
2019-04-14T00:33:08.386Z,3.99
2019-04-14T00:35:41.222Z,4.19
2019-04-14T00:38:26.010Z,4.21
2019-04-14T00:40:54.023Z,4.35
2019-04-14T00:48:55.952Z,4.38
2019-04-14T00:51:24.508Z,4.38
2019-04-14T00:53:53.347Z,4.10
2019-04-14T00:56:21.507Z,4.04
2019-04-14T00:58:49.735Z,4.09
2019-04-14T01:01:17.640Z,4.16
2019-04-14T01:03:46.071Z,4.21
2019-04-14T01:06:14.453Z,4.53
2019-04-14T01:08:42.837Z,4.60
2019-04-14T01:11:11.763Z,4.63
2019-04-14T01:16:20.298Z,4.51
2019-04-14T01:21:21.798Z,4.64
2019-04-14T01:23:50.182Z,4.58
2019-04-14T01:26:20.279Z,4.66
2019-04-14T01:28:48.332Z,4.94
2019-04-14T01:33:51.125Z,5.01
2019-04-14T01:38:53.629Z,4.92
2019-04-14T01:41:21.684Z,4.91
2019-04-14T01:43:49.656Z,4.91
2019-04-14T01:46:24.138Z,4.94
2019-04-14T01:48:47.448Z,4.77
2019-04-14T01:54:32.401Z,4.80
2019-04-14T01:57:06.671Z,4.80
2019-04-14T01:59:34.872Z,4.84
2019-04-14T02:02:03.046Z,4.72
2019-04-14T02:04:31.506Z,4.67
2019-04-14T02:06:59.850Z,4.85
2019-04-14T02:09:29.375Z,4.91
2019-04-14T02:11:57.463Z,4.98
2019-04-14T02:14:25.486Z,4.49
2019-04-14T02:16:57.301Z,4.58
2019-04-14T02:21:58.484Z,4.62
2019-04-14T02:24:26.336Z,4.52
2019-04-14T02:26:54.764Z,4.60
2019-04-14T02:29:23.333Z,4.81
2019-04-14T02:34:57.347Z,4.64
2019-04-14T02:37:19.538Z,4.67
2019-04-14T02:40:00.443Z,4.68
2019-04-14T02:42:28.266Z,4.72
2019-04-14T02:44:46.053Z,4.79
2019-04-14T02:54:51.778Z,4.55
2019-04-14T02:57:17.630Z,4.60
2019-04-14T02:59:43.245Z,4.58
2019-04-14T03:02:24.644Z,4.44
2019-04-14T03:09:42.423Z,4.48
2019-04-14T03:12:01.374Z,4.04
2019-04-14T03:17:14.273Z,4.31
2019-04-14T03:19:35.210Z,4.38
2019-04-14T03:24:34.061Z,4.30
2019-04-14T03:27:13.511Z,4.25
2019-04-14T03:29:45.047Z,3.84
2019-04-14T03:32:32.360Z,3.98
2019-04-14T03:44:34.636Z,4.21
2019-04-14T03:49:31.804Z,4.10
2019-04-14T03:51:57.825Z,3.97
2019-04-14T03:54:20.605Z,4.28
2019-04-14T03:56:46.683Z,4.42
2019-04-14T03:59:15.107Z,4.23
2019-04-14T04:01:43.497Z,4.20
2019-04-14T04:04:11.849Z,4.02
2019-04-14T04:06:39.921Z,4.08
2019-04-14T04:09:08.334Z,4.03
2019-04-14T04:11:36.632Z,4.00
2019-04-14T04:14:05.245Z,4.18
2019-04-14T04:19:15.601Z,4.34
2019-04-14T04:24:39.545Z,4.20
2019-04-14T04:30:02.144Z,4.14
2019-04-14T04:35:08.562Z,4.11
2019-04-14T04:37:36.819Z,4.09
2019-04-14T04:40:05.048Z,4.04
2019-04-14T04:42:33.305Z,4.13
2019-04-14T04:45:01.962Z,4.17
2019-04-14T04:47:30.180Z,4.24
2019-04-14T04:49:58.548Z,4.04
2019-04-14T04:52:28.059Z,4.23
2019-04-14T04:54:55.927Z,4.16
2019-04-14T04:57:24.208Z,4.01
2019-04-14T04:59:52.056Z,3.76
2019-04-14T05:02:22.087Z,3.48
2019-04-14T05:04:50.541Z,3.84
2019-04-14T05:07:18.795Z,4.01
2019-04-14T05:09:51.936Z,4.31
2019-04-14T05:17:51.917Z,4.43
2019-04-14T05:20:20.411Z,4.21
2019-04-14T05:22:48.766Z,4.40
2019-04-14T05:25:17.061Z,4.59
2019-04-14T05:27:45.458Z,4.46
2019-04-14T05:30:13.780Z,4.65
2019-04-14T05:32:43.457Z,4.40
2019-04-14T05:35:11.917Z,4.71
2019-04-14T05:37:40.051Z,4.85
2019-04-14T05:40:08.138Z,4.86
2019-04-14T05:42:36.244Z,4.97
2019-04-14T05:45:04.474Z,5.26
2019-04-14T05:47:32.646Z,5.37
2019-04-14T05:50:01.109Z,5.80
2019-04-14T05:52:29.634Z,5.87
2019-04-14T05:54:57.963Z,5.77
2019-04-14T06:00:01.641Z,5.81
2019-04-14T06:05:03.712Z,5.86
2019-04-14T06:07:31.516Z,5.97
2019-04-14T06:12:34.157Z,6.33
2019-04-14T06:15:02.505Z,6.18
2019-04-14T06:20:05.170Z,6.35
2019-04-14T06:25:07.749Z,6.33
2019-04-14T06:27:36.124Z,6.21
2019-04-14T06:30:05.373Z,6.44
2019-04-14T06:32:39.214Z,6.50
2019-04-14T06:35:15.063Z,6.35
2019-04-14T06:37:49.381Z,6.52
2019-04-14T06:40:17.725Z,6.70
2019-04-14T06:42:47.708Z,7.11
2019-04-14T06:45:16.057Z,6.81
2019-04-14T06:47:44.482Z,7.13
2019-04-14T06:50:12.964Z,7.29
2019-04-14T06:52:41.341Z,7.29
2019-04-14T06:55:09.729Z,7.49
2019-04-14T06:57:38.132Z,7.50
2019-04-14T07:02:40.772Z,7.76
2019-04-14T07:05:09.092Z,8.28
2019-04-14T07:07:37.439Z,8.26
2019-04-14T07:12:43.536Z,8.72
2019-04-14T07:15:13.421Z,8.88
2019-04-14T07:17:41.760Z,7.71
2019-04-14T07:20:10.140Z,8.06
2019-04-14T07:22:38.482Z,8.33
2019-04-14T07:25:06.906Z,7.70
2019-04-14T07:27:35.299Z,8.26
2019-04-14T07:30:09.157Z,8.23
2019-04-14T07:32:43.079Z,7.65
2019-04-14T07:38:09.357Z,7.47
2019-04-14T07:40:44.047Z,8.53
2019-04-14T07:54:41.390Z,10.45
2019-04-14T07:57:09.569Z,10.86
2019-04-14T08:02:16.652Z,11.02
2019-04-14T08:04:45.240Z,10.67
2019-04-14T08:07:13.593Z,10.61
2019-04-14T08:09:41.933Z,10.39
2019-04-14T08:12:10.282Z,10.40
2019-04-14T08:14:38.619Z,10.58
2019-04-14T08:17:07.072Z,9.62
2019-04-14T08:19:36.461Z,9.35
2019-04-14T08:22:10.748Z,9.82
2019-04-14T08:24:39.112Z,9.83
2019-04-14T08:27:07.655Z,10.45
2019-04-14T08:29:36.033Z,10.61
2019-04-14T08:32:04.379Z,10.05
2019-04-14T08:34:32.816Z,10.91
2019-04-14T08:39:35.509Z,11.01
2019-04-14T08:44:39.596Z,12.11
2019-04-14T08:49:45.532Z,11.58
2019-04-14T08:55:10.196Z,9.71
2019-04-14T08:57:39.287Z,11.17
2019-04-14T09:00:11.440Z,12.11
2019-04-14T09:02:45.368Z,12.40
2019-04-14T09:05:15.948Z,12.46
2019-04-14T09:07:44.298Z,11.60
2019-04-14T09:10:12.624Z,11.67
2019-04-14T09:12:44.300Z,12.76
2019-04-14T09:17:47.159Z,14.56
2019-04-14T09:20:15.556Z,16.53
2019-04-14T09:22:43.919Z,17.07
2019-04-14T09:25:12.306Z,16.81
2019-04-14T09:30:14.904Z,11.15
2019-04-14T09:35:17.520Z,13.12
2019-04-14T09:37:45.894Z,12.13
2019-04-14T09:42:48.517Z,15.37
2019-04-14T09:45:16.868Z,17.34
2019-04-14T09:47:45.213Z,17.99
2019-04-14T09:50:13.649Z,18.82
2019-04-14T09:52:42.044Z,15.68
2019-04-14T09:55:10.386Z,17.13
2019-04-14T09:57:38.741Z,19.46
2019-04-14T10:00:07.087Z,20.30
2019-04-14T10:02:35.436Z,17.23
2019-04-14T10:05:03.850Z,14.21
2019-04-14T10:07:32.235Z,16.14
2019-04-14T10:10:00.617Z,18.15
2019-04-14T10:12:29.015Z,15.97
2019-04-14T10:14:57.392Z,19.15
2019-04-14T10:17:25.773Z,21.58
2019-04-14T10:19:54.543Z,21.71
2019-04-14T10:22:33.443Z,20.12
2019-04-14T10:24:51.322Z,18.19
2019-04-14T10:27:19.691Z,15.75
2019-04-14T10:29:48.108Z,16.61
2019-04-14T10:32:16.455Z,16.62
2019-04-14T10:34:44.870Z,15.78
2019-04-14T10:37:13.217Z,15.33
2019-04-14T10:39:41.569Z,16.33
2019-04-14T10:42:10.004Z,17.03
2019-04-14T10:47:12.637Z,13.93
2019-04-14T10:49:40.989Z,15.79
2019-04-14T10:52:09.403Z,17.15
2019-04-14T10:57:12.088Z,19.27
2019-04-14T10:59:40.485Z,20.91
2019-04-14T11:04:43.032Z,20.31
2019-04-14T11:07:11.367Z,17.75
2019-04-14T11:09:39.827Z,19.15
2019-04-14T11:12:08.322Z,19.25
2019-04-14T11:14:36.691Z,17.62
2019-04-14T11:19:39.252Z,14.58
2019-04-14T11:22:07.604Z,14.35
2019-04-14T11:24:36.074Z,13.61
2019-04-14T11:27:04.559Z,14.08
2019-04-14T11:35:08.153Z,12.62
2019-04-14T11:37:43.147Z,12.90
2019-04-14T11:42:52.260Z,13.36
2019-04-14T11:45:14.294Z,13.64
2019-04-14T11:47:42.646Z,13.45
2019-04-14T11:50:10.997Z,13.60
2019-04-14T11:52:39.456Z,13.68
2019-04-14T11:55:07.842Z,14.13
2019-04-14T11:57:36.215Z,14.32
2019-04-14T12:00:11.036Z,13.54
2019-04-14T12:05:27.508Z,13.40
2019-04-14T12:10:30.185Z,12.77
2019-04-14T12:12:59.490Z,12.62
2019-04-14T12:15:27.844Z,12.01
2019-04-14T12:17:56.176Z,12.43
2019-04-14T12:22:58.924Z,12.58
2019-04-14T12:25:27.276Z,12.67
2019-04-14T12:27:56.022Z,12.67
2019-04-14T12:30:24.506Z,12.65
2019-04-14T12:32:52.795Z,12.78
2019-04-14T12:37:55.437Z,12.79
2019-04-14T12:40:23.773Z,12.47
2019-04-14T12:45:31.797Z,11.71
2019-04-14T12:50:34.390Z,11.74
2019-04-14T12:53:02.733Z,11.88
2019-04-14T12:55:31.093Z,11.46
2019-04-14T12:58:00.241Z,10.92
2019-04-14T13:00:39.279Z,10.23
2019-04-14T13:03:07.620Z,11.30
2019-04-14T13:05:36.053Z,11.93
2019-04-14T13:08:04.426Z,11.18
2019-04-14T13:10:32.828Z,11.47
2019-04-14T13:13:01.208Z,11.90
2019-04-14T13:15:29.571Z,11.62
2019-04-14T13:17:57.984Z,11.76
2019-04-14T13:23:00.584Z,11.72
2019-04-14T13:28:03.122Z,11.63
2019-04-14T13:30:31.466Z,11.65
2019-04-14T13:35:34.012Z,11.48
2019-04-14T13:38:02.437Z,12.15
2019-04-14T13:43:07.077Z,11.43
2019-04-14T13:45:35.472Z,11.42
2019-04-14T13:50:38.027Z,11.67
2019-04-14T13:53:06.382Z,11.68
2019-04-14T13:55:34.736Z,12.09
2019-04-14T14:00:38.284Z,11.71
2019-04-14T14:03:06.651Z,11.15
2019-04-14T14:08:09.267Z,11.67
2019-04-14T14:10:37.615Z,11.62
2019-04-14T14:15:41.270Z,11.35
2019-04-14T14:21:08.800Z,10.12
2019-04-14T14:23:42.536Z,10.88
2019-04-14T14:28:45.123Z,11.02
2019-04-14T14:31:14.009Z,11.06
2019-04-14T14:33:45.335Z,10.95
2019-04-14T14:38:49.025Z,10.94
2019-04-14T14:41:17.385Z,11.17
2019-04-14T14:49:14.578Z,11.53
2019-04-14T14:51:43.824Z,11.73
2019-04-14T14:54:12.178Z,11.63
2019-04-14T14:56:40.836Z,11.54
2019-04-14T14:59:09.158Z,11.01
2019-04-14T15:01:37.505Z,10.71
2019-04-14T15:04:05.851Z,10.70
2019-04-14T15:06:34.197Z,11.35
2019-04-14T15:09:02.550Z,11.69
2019-04-14T15:11:30.891Z,11.82
2019-04-14T15:13:59.225Z,11.76
2019-04-14T15:16:27.568Z,11.62
2019-04-14T15:18:55.908Z,10.85
2019-04-14T15:21:24.262Z,11.35
2019-04-14T15:26:26.854Z,11.51
2019-04-14T15:28:55.224Z,11.66
2019-04-14T15:31:23.607Z,11.59
2019-04-14T15:33:51.961Z,11.14
2019-04-14T15:36:20.309Z,11.30
2019-04-14T15:38:49.591Z,10.71
2019-04-14T15:41:17.923Z,10.90
2019-04-14T15:43:46.266Z,10.90
2019-04-14T15:48:48.966Z,10.74
2019-04-14T15:53:53.544Z,10.15
2019-04-14T15:56:23.192Z,10.43
2019-04-14T15:59:05.530Z,10.31
2019-04-14T16:07:03.250Z,10.46
2019-04-14T16:09:41.496Z,10.76
2019-04-14T16:12:12.109Z,10.69
2019-04-14T16:14:41.672Z,10.49
2019-04-14T16:19:44.228Z,10.24
2019-04-14T16:22:12.572Z,10.06
2019-04-14T16:24:40.932Z,9.67
2019-04-14T16:27:09.281Z,9.43
2019-04-14T16:29:37.648Z,9.79
2019-04-14T16:35:09.019Z,9.60
2019-04-14T16:37:36.094Z,9.66
2019-04-14T16:40:04.489Z,9.64
2019-04-14T16:42:32.875Z,9.73
2019-04-14T16:45:01.264Z,9.85
2019-04-14T16:47:29.635Z,9.62
2019-04-14T16:49:58.007Z,9.66
2019-04-14T16:52:27.149Z,9.76
2019-04-14T16:55:08.160Z,9.63
2019-04-14T16:57:52.236Z,9.56
2019-04-14T17:00:21.808Z,9.53
2019-04-14T17:02:50.238Z,9.55
2019-04-14T17:05:18.443Z,9.66
2019-04-14T17:07:46.800Z,9.49
2019-04-14T17:10:15.129Z,9.47
2019-04-14T17:15:18.146Z,9.53
2019-04-14T17:20:26.726Z,9.35
2019-04-14T17:22:59.015Z,9.06
2019-04-14T17:28:12.375Z,9.08
2019-04-14T17:33:18.800Z,8.45
2019-04-14T17:35:52.130Z,8.46
2019-04-14T17:38:26.680Z,8.59
2019-04-14T17:40:56.043Z,8.99
2019-04-14T17:43:24.685Z,9.05
2019-04-14T17:46:09.696Z,9.13
2019-04-14T17:51:35.172Z,8.79
2019-04-14T17:56:39.599Z,9.00
2019-04-14T18:04:36.069Z,8.86
2019-04-14T18:07:05.691Z,8.93
2019-04-14T18:09:39.900Z,8.73
2019-04-14T18:12:22.277Z,8.60
2019-04-14T18:14:54.026Z,8.84
2019-04-14T18:17:22.356Z,8.92
2019-04-14T18:20:05.595Z,8.76
2019-04-14T18:22:34.144Z,8.75
2019-04-14T18:25:02.516Z,8.77
2019-04-14T18:27:30.873Z,8.88
2019-04-14T18:32:41.432Z,8.81
2019-04-14T18:35:14.310Z,8.57
2019-04-14T18:37:44.976Z,8.52
2019-04-14T18:40:18.156Z,8.26
2019-04-14T18:42:46.494Z,8.19
2019-04-14T18:45:17.587Z,8.37
2019-04-14T18:47:47.873Z,8.35
2019-04-14T18:50:17.943Z,8.32
2019-04-14T18:52:50.150Z,8.55
2019-04-14T18:55:29.315Z,8.73
2019-04-14T19:00:43.605Z,8.59
2019-04-14T19:03:11.956Z,8.42
2019-04-14T19:05:40.403Z,8.38
2019-04-14T19:08:08.735Z,8.33
2019-04-14T19:10:38.173Z,8.28
2019-04-14T19:13:09.352Z,8.36
2019-04-14T19:15:37.515Z,8.29
2019-04-14T19:18:21.515Z,8.28
2019-04-14T19:20:51.782Z,8.26
2019-04-14T19:23:20.128Z,8.37
2019-04-14T19:25:48.549Z,8.30
2019-04-14T19:28:16.925Z,8.60
2019-04-14T19:30:45.356Z,8.64
2019-04-14T19:33:13.789Z,8.36
2019-04-14T19:35:42.164Z,8.41
2019-04-14T19:38:10.567Z,8.34
2019-04-14T19:40:38.976Z,8.29
2019-04-14T19:43:07.432Z,8.42
2019-04-14T19:45:35.786Z,8.19
2019-04-14T19:48:04.114Z,8.24
2019-04-14T19:50:32.469Z,8.12
2019-04-14T19:53:00.852Z,7.92
2019-04-14T19:55:29.233Z,7.89
2019-04-14T19:57:57.574Z,7.65
2019-04-14T20:00:25.938Z,7.51
2019-04-14T20:05:28.625Z,7.32
2019-04-14T20:07:57.088Z,7.32
2019-04-14T20:10:25.491Z,7.33
2019-04-14T20:12:53.880Z,7.51
2019-04-14T20:17:59.281Z,7.74
2019-04-14T20:20:30.086Z,7.55
2019-04-14T20:25:41.576Z,7.72
2019-04-14T20:28:09.974Z,7.70
2019-04-14T20:33:12.505Z,8.05
2019-04-14T20:35:40.851Z,8.18
2019-04-14T20:40:45.452Z,8.11
2019-04-14T20:43:13.792Z,7.97
2019-04-14T20:45:42.141Z,8.17
2019-04-14T20:48:10.532Z,8.02
2019-04-14T20:50:38.904Z,8.11
2019-04-14T20:53:07.307Z,8.26
2019-04-14T20:55:46.288Z,8.25
2019-04-14T20:58:04.060Z,8.17
2019-04-14T21:00:32.444Z,8.04
2019-04-14T21:08:39.909Z,8.18
2019-04-14T21:11:08.285Z,8.09
2019-04-14T21:13:37.517Z,8.04
2019-04-14T21:19:04.828Z,8.20
2019-04-14T21:21:33.188Z,8.20
2019-04-14T21:24:01.533Z,8.04
2019-04-14T21:26:32.126Z,8.04
2019-04-14T21:29:00.883Z,8.15
2019-04-14T21:31:30.136Z,8.02
2019-04-14T21:36:56.660Z,7.82
2019-04-14T21:39:30.949Z,7.64
2019-04-14T21:41:59.294Z,7.67
2019-04-14T21:44:27.632Z,7.52
2019-04-14T21:46:56.002Z,7.80
2019-04-14T21:49:24.409Z,7.65
2019-04-14T21:51:55.200Z,7.66
2019-04-14T21:54:23.560Z,7.84
2019-04-14T21:59:51.400Z,7.78
2019-04-14T22:02:25.341Z,7.47
2019-04-14T22:07:27.925Z,7.64
2019-04-14T22:09:56.277Z,7.38
2019-04-14T22:12:24.690Z,7.35
2019-04-14T22:14:53.033Z,7.48
2019-04-14T22:17:21.395Z,7.65
2019-04-14T22:19:49.752Z,7.28
2019-04-14T22:22:18.103Z,7.20
2019-04-14T22:24:46.500Z,7.23
2019-04-14T22:27:14.828Z,7.03
2019-04-14T22:29:43.260Z,6.92
2019-04-14T22:32:11.532Z,6.99
2019-04-14T22:34:39.871Z,6.88
2019-04-14T22:37:08.304Z,7.05
2019-04-14T22:39:39.123Z,6.91
2019-04-14T22:42:06.096Z,6.91
2019-04-14T22:44:34.491Z,7.04
2019-04-14T22:47:02.868Z,7.09
2019-04-14T22:49:31.247Z,7.20
2019-04-14T22:52:00.556Z,7.18
2019-04-14T22:54:28.935Z,7.12
2019-04-14T22:56:58.250Z,7.14
2019-04-14T22:59:26.588Z,6.95
2019-04-14T23:01:57.216Z,6.96
2019-04-14T23:04:31.140Z,6.93
2019-04-14T23:09:41.404Z,7.13
2019-04-14T23:12:13.996Z,6.91
2019-04-14T23:14:47.812Z,7.09
2019-04-14T23:17:17.061Z,7.14
2019-04-14T23:22:20.455Z,7.13
2019-04-14T23:24:48.805Z,7.17
2019-04-14T23:27:17.342Z,6.96
2019-04-14T23:29:45.746Z,7.03
2019-04-14T23:32:14.175Z,6.90
2019-04-14T23:34:42.622Z,6.96
2019-04-14T23:37:10.976Z,7.26
2019-04-14T23:39:39.339Z,7.24
2019-04-14T23:42:07.785Z,7.20
2019-04-14T23:44:36.109Z,6.95
2019-04-14T23:47:04.465Z,6.75
2019-04-14T23:54:41.271Z,6.99
